Time;durP1;ratioP1;P1;durP2;ratioP2;P2;SDS_P1;SDS_P2;PMS_P1;PMS_P2;Temp;Humidity;BMP_temperature;BMP_pressure;BME280_temperature;BME280_humidity;BME280_pressure;Samples;Min_cycle;Max_cycle;Signal;HPM_P1;HPM_P2
2022/04/28 00:01:35;;;;;;;4.17;3.87;;;10.80;33.70;;;;;;10318852;28;20237;-74
2022/04/28 00:06:39;;;;;;;4.80;4.40;;;10.70;34.10;;;;;;10312456;28;20251;-73
2022/04/28 00:11:42;;;;;;;4.00;3.70;;;10.60;34.10;;;;;;10316571;28;20227;-73
2022/04/28 00:16:47;;;;;;;4.37;4.03;;;10.60;34.30;;;;;;10310908;28;20231;-74
2022/04/28 00:21:50;;;;;;;4.00;3.70;;;10.60;34.40;;;;;;10331028;28;20231;-74
2022/04/28 00:26:53;;;;;;;4.67;4.27;;;10.60;34.40;;;;;;10319210;28;20241;-73
2022/04/28 00:31:58;;;;;;;5.00;4.60;;;10.60;34.30;;;;;;10312817;28;20227;-74
2022/04/28 00:37:01;;;;;;;5.27;4.77;;;10.60;34.10;;;;;;10323866;28;20238;-73
2022/04/28 00:42:11;;;;;;;4.20;3.70;;;10.50;33.80;;;;;;10308044;28;20240;-74
2022/04/28 00:47:16;;;;;;;4.00;3.57;;;10.30;34.10;;;;;;10324110;28;20243;-73
2022/04/28 00:52:19;;;;;;;5.07;4.67;;;10.20;34.20;;;;;;10324469;28;20254;-74
2022/04/28 00:57:24;;;;;;;5.27;4.87;;;10.10;34.00;;;;;;10308366;28;20712;-73
2022/04/28 01:02:28;;;;;;;5.23;4.80;;;10.10;34.00;;;;;;10309778;28;20235;-74
2022/04/28 01:07:32;;;;;;;4.93;4.53;;;9.90;35.10;;;;;;10310395;28;20266;-74
2022/04/28 01:12:36;;;;;;;4.27;3.90;;;9.90;35.30;;;;;;10321277;28;20986;-73
2022/04/28 01:17:40;;;;;;;4.80;4.40;;;9.80;35.20;;;;;;10312004;28;20238;-74
2022/04/28 01:22:45;;;;;;;4.40;4.00;;;9.80;35.30;;;;;;10322982;28;20718;-74
2022/04/28 01:27:48;;;;;;;4.37;4.00;;;9.70;35.40;;;;;;10317755;28;20239;-74
2022/04/28 01:32:52;;;;;;;4.10;3.80;;;9.70;35.40;;;;;;10313858;28;20237;-74
2022/04/28 01:37:57;;;;;;;4.07;3.77;;;9.70;35.30;;;;;;10315607;28;20231;-73
2022/04/28 01:43:00;;;;;;;5.20;4.70;;;9.70;35.40;;;;;;10306511;28;20238;-74
2022/04/28 01:48:04;;;;;;;4.20;3.80;;;9.70;35.40;;;;;;10315625;28;20231;-74
2022/04/28 01:58:29;;;;;;;4.20;3.90;;;9.60;35.50;;;;;;10317719;28;20262;-74
2022/04/28 02:03:32;;;;;;;4.80;4.50;;;9.60;35.40;;;;;;10314023;28;20238;-73
2022/04/28 02:08:36;;;;;;;3.87;3.57;;;9.60;35.30;;;;;;10319249;28;20235;-73
2022/04/28 02:13:40;;;;;;;4.40;4.00;;;9.60;35.40;;;;;;10316825;28;20227;-73
2022/04/28 02:18:43;;;;;;;4.00;3.70;;;9.60;35.30;;;;;;10314813;28;20235;-73
2022/04/28 02:23:47;;;;;;;3.80;3.50;;;9.50;35.20;;;;;;10307590;28;20312;-73
2022/04/28 02:28:51;;;;;;;3.90;3.47;;;9.50;35.30;;;;;;10302613;28;20223;-73
2022/04/28 02:33:54;;;;;;;3.90;3.60;;;9.50;35.20;;;;;;10310447;28;20234;-73
2022/04/28 02:38:58;;;;;;;3.83;3.53;;;9.50;35.30;;;;;;10311418;28;20230;-73
2022/04/28 02:44:01;;;;;;;3.83;3.53;;;9.40;35.30;;;;;;10319659;28;20234;-73
2022/04/28 02:49:05;;;;;;;3.10;2.90;;;9.40;35.40;;;;;;10311017;28;20239;-72
2022/04/28 02:54:10;;;;;;;3.80;3.50;;;9.40;35.30;;;;;;10310240;28;20239;-72
2022/04/28 02:59:13;;;;;;;4.20;3.90;;;9.30;35.30;;;;;;10326291;28;20223;-72
2022/04/28 03:04:16;;;;;;;3.67;3.47;;;9.30;35.20;;;;;;10325057;28;20235;-72
2022/04/28 03:14:41;;;;;;;4.33;3.47;;;9.30;35.30;;;;;;10324328;28;20249;-72
2022/04/28 03:19:45;;;;;;;4.33;4.00;;;9.20;35.10;;;;;;10311593;28;20234;-72
2022/04/28 03:24:49;;;;;;;4.60;4.20;;;9.20;35.10;;;;;;10323938;28;20230;-72
2022/04/28 03:29:52;;;;;;;6.40;5.83;;;9.10;35.00;;;;;;10312523;28;20237;-73
2022/04/28 03:34:56;;;;;;;4.80;4.40;;;9.00;34.80;;;;;;10328138;28;20254;-72
2022/04/28 03:40:00;;;;;;;4.33;4.03;;;8.90;34.90;;;;;;10313830;28;20231;-72
2022/04/28 03:45:04;;;;;;;3.97;3.67;;;8.80;35.20;;;;;;10313663;28;20235;-72
2022/04/28 03:50:09;;;;;;;4.17;3.77;;;8.70;35.30;;;;;;10324706;28;20246;-72
2022/04/28 03:55:13;;;;;;;3.90;3.60;;;8.70;35.40;;;;;;10309286;28;20227;-72
2022/04/28 04:00:17;;;;;;;4.60;4.30;;;8.60;35.20;;;;;;10324948;28;20710;-73
2022/04/28 04:05:20;;;;;;;4.00;3.70;;;8.60;35.10;;;;;;10313937;28;20746;-72
2022/04/28 04:10:25;;;;;;;3.93;3.73;;;8.60;34.90;;;;;;10314360;28;20227;-72
2022/04/28 04:15:28;;;;;;;4.97;4.67;;;8.50;35.10;;;;;;10309056;28;20242;-72
2022/04/28 04:20:31;;;;;;;4.30;3.87;;;8.40;35.30;;;;;;10324685;28;20235;-72
2022/04/28 04:25:36;;;;;;;4.70;4.30;;;8.30;35.40;;;;;;10308316;28;20596;-73
2022/04/28 04:36:00;;;;;;;4.30;4.00;;;8.30;35.60;;;;;;10316328;28;20337;-73
2022/04/28 04:41:05;;;;;;;4.07;3.63;;;8.30;35.80;;;;;;10309628;28;20230;-73
2022/04/28 04:46:08;;;;;;;7.47;6.80;;;8.30;35.70;;;;;;10304612;28;20351;-73
2022/04/28 04:51:13;;;;;;;6.10;5.60;;;8.20;35.70;;;;;;10315426;28;20704;-73
2022/04/28 04:56:18;;;;;;;4.30;4.00;;;8.20;35.90;;;;;;10311224;28;20867;-73
2022/04/28 05:01:21;;;;;;;4.53;4.10;;;8.20;36.10;;;;;;10313172;28;20598;-73
2022/04/28 05:06:24;;;;;;;4.10;3.80;;;8.20;36.20;;;;;;10310787;28;20264;-74
2022/04/28 05:11:32;;;;;;;4.10;3.77;;;8.30;36.30;;;;;;10303559;28;20239;-73
2022/04/28 05:16:36;;;;;;;5.07;4.67;;;8.30;36.90;;;;;;10297441;28;20790;-73
2022/04/28 05:21:39;;;;;;;5.43;4.93;;;8.30;36.50;;;;;;10306504;28;20231;-74
2022/04/28 05:26:43;;;;;;;7.53;5.17;;;8.30;36.60;;;;;;10304449;28;20230;-73
2022/04/28 05:31:47;;;;;;;5.90;5.40;;;8.30;37.10;;;;;;10310966;28;20234;-74
2022/04/28 05:36:50;;;;;;;8.87;8.07;;;8.30;37.00;;;;;;10305188;28;20262;-74
2022/04/28 05:41:57;;;;;;;10.17;7.67;;;8.30;37.40;;;;;;10306769;28;20234;-74
2022/04/28 05:47:01;;;;;;;8.03;6.63;;;8.40;37.90;;;;;;10306699;28;20231;-74
2022/04/28 05:52:04;;;;;;;8.73;6.60;;;8.40;37.80;;;;;;10305706;28;20229;-74
2022/04/28 05:57:11;;;;;;;9.23;8.33;;;8.60;38.10;;;;;;10307014;28;20231;-74
2022/04/28 06:02:14;;;;;;;11.27;10.03;;;8.70;38.50;;;;;;10306826;28;20716;-74
2022/04/28 06:07:18;;;;;;;13.03;10.77;;;8.70;38.40;;;;;;10311520;28;20231;-74
2022/04/28 06:12:24;;;;;;;10.33;9.33;;;8.90;38.60;;;;;;10315741;28;20227;-74
2022/04/28 06:17:27;;;;;;;10.90;9.80;;;9.00;39.30;;;;;;10301725;28;20231;-74
2022/04/28 06:22:30;;;;;;;8.90;8.10;;;9.10;38.90;;;;;;10298283;28;20856;-74
2022/04/28 06:27:36;;;;;;;9.30;8.30;;;9.30;39.80;;;;;;10303517;28;20322;-74
2022/04/28 06:32:39;;;;;;;9.43;8.43;;;9.50;40.40;;;;;;10296752;28;20227;-74
2022/04/28 06:37:42;;;;;;;9.17;8.33;;;9.70;39.90;;;;;;10301425;28;20231;-74
2022/04/28 06:42:50;;;;;;;9.33;8.53;;;9.90;40.10;;;;;;10299624;28;20235;-75
2022/04/28 06:47:53;;;;;;;9.77;8.87;;;10.00;39.90;;;;;;10296903;28;20236;-74
2022/04/28 06:52:56;;;;;;;9.63;8.83;;;10.30;39.50;;;;;;10302076;28;20231;-74
2022/04/28 06:58:01;;;;;;;10.30;9.40;;;10.40;39.60;;;;;;10303708;28;20239;-74
2022/04/28 07:03:04;;;;;;;9.90;9.00;;;10.60;40.50;;;;;;10307471;28;20228;-74
2022/04/28 07:08:08;;;;;;;9.83;8.83;;;10.80;40.10;;;;;;10303077;28;20499;-75
2022/04/28 07:13:12;;;;;;;9.13;8.23;;;10.90;40.20;;;;;;10294790;28;20231;-74
2022/04/28 07:18:16;;;;;;;10.23;9.33;;;11.20;40.70;;;;;;10296004;28;20258;-74
2022/04/28 07:23:19;;;;;;;10.47;9.47;;;11.40;40.50;;;;;;10301013;28;20314;-74
2022/04/28 07:28:24;;;;;;;10.57;9.50;;;11.60;40.60;;;;;;10295254;28;20251;-74
2022/04/28 07:33:27;;;;;;;8.97;8.20;;;11.90;41.60;;;;;;10298439;28;20687;-74
2022/04/28 07:38:30;;;;;;;10.20;9.23;;;12.10;40.70;;;;;;10301929;28;20722;-74
2022/04/28 07:43:35;;;;;;;10.57;9.57;;;12.30;40.70;;;;;;10297019;28;20664;-74
2022/04/28 07:48:38;;;;;;;10.53;9.53;;;12.60;41.00;;;;;;10294769;28;20227;-74
2022/04/28 07:53:41;;;;;;;10.80;9.90;;;12.80;40.80;;;;;;10301520;28;20230;-74
2022/04/28 07:58:46;;;;;;;10.80;9.90;;;13.20;41.00;;;;;;10308819;28;20275;-74
2022/04/28 08:04:09;;;;;;;10.37;9.47;;;13.40;40.90;;;;;;10305893;28;20237;-74
2022/04/28 08:09:12;;;;;;;10.57;9.57;;;13.70;40.90;;;;;;10307043;28;20612;-74
2022/04/28 08:14:23;;;;;;;9.93;9.13;;;14.10;40.80;;;;;;10299678;28;20231;-74
2022/04/28 08:19:26;;;;;;;9.43;8.67;;;14.40;40.80;;;;;;10304992;28;20286;-74
2022/04/28 08:24:30;;;;;;;8.73;7.93;;;14.70;40.40;;;;;;10301536;28;20227;-74
2022/04/28 08:29:34;;;;;;;9.73;8.83;;;15.10;40.30;;;;;;10312700;28;20329;-74
2022/04/28 08:34:38;;;;;;;8.43;7.73;;;15.40;40.00;;;;;;10298791;28;20595;-74
2022/04/28 08:39:41;;;;;;;8.07;7.37;;;15.70;39.20;;;;;;10303217;28;20233;-74
2022/04/28 08:44:46;;;;;;;7.50;6.90;;;15.90;38.60;;;;;;10310494;28;20241;-76
2022/04/28 08:49:51;;;;;;;6.73;6.10;;;16.20;37.70;;;;;;10323465;28;20237;-76
2022/04/28 08:54:55;;;;;;;6.17;5.57;;;16.40;37.00;;;;;;10313968;28;20651;-76
2022/04/28 08:59:59;;;;;;;6.10;5.60;;;16.70;36.00;;;;;;10321539;28;20581;-76
2022/04/28 09:05:03;;;;;;;6.70;6.10;;;17.10;34.60;;;;;;10318984;28;20593;-76
2022/04/28 09:10:26;;;;;;;5.50;5.00;;;17.50;34.30;;;;;;10339650;28;20239;-76
2022/04/28 09:15:30;;;;;;;6.17;5.57;;;17.80;32.50;;;;;;10315008;28;20235;-75
2022/04/28 09:20:36;;;;;;;6.47;5.90;;;18.10;33.60;;;;;;10317648;28;20731;-75
2022/04/28 09:25:45;;;;;;;5.77;5.27;;;18.40;33.80;;;;;;10325351;28;20241;-75
2022/04/28 09:30:52;;;;;;;5.90;5.40;;;18.60;32.20;;;;;;10326796;28;20234;-75
2022/04/28 09:35:55;;;;;;;5.50;5.10;;;18.70;31.50;;;;;;10310425;28;20720;-76
2022/04/28 09:46:23;;;;;;;5.73;5.23;;;19.00;32.30;;;;;;10311648;28;20274;-75
2022/04/28 09:51:29;;;;;;;6.30;5.70;;;19.20;30.90;;;;;;10320631;28;20314;-76
2022/04/28 09:56:34;;;;;;;6.60;6.07;;;19.30;31.80;;;;;;10312693;28;20984;-75
2022/04/28 10:01:40;;;;;;;6.50;5.90;;;19.20;31.10;;;;;;10308082;28;20232;-75
2022/04/28 10:06:44;;;;;;;5.30;4.90;;;19.20;30.00;;;;;;10300738;28;20680;-75
2022/04/28 10:11:51;;;;;;;5.90;5.40;;;19.20;30.80;;;;;;10305851;28;20314;-75
2022/04/28 10:16:58;;;;;;;5.10;4.63;;;19.20;29.60;;;;;;10314251;28;20257;-75
2022/04/28 10:22:05;;;;;;;5.37;3.77;;;19.30;28.80;;;;;;10322129;28;20235;-75
2022/04/28 10:32:57;;;;;;;4.83;4.43;;;19.60;28.60;;;;;;10312203;28;20238;-76
2022/04/28 10:38:16;;;;;;;4.90;4.40;;;19.70;27.50;;;;;;10302634;28;20586;-75
2022/04/28 10:43:23;;;;;;;5.10;4.70;;;19.80;27.50;;;;;;10308945;28;20350;-76
2022/04/28 10:48:35;;;;;;;4.43;4.13;;;19.70;28.00;;;;;;10324862;28;20242;-75
2022/04/28 10:53:57;;;;;;;4.00;3.70;;;19.90;27.20;;;;;;10325151;28;20246;-75
2022/04/28 10:59:02;;;;;;;5.10;4.60;;;20.10;27.60;;;;;;10322768;28;20238;-73
2022/04/28 11:04:11;;;;;;;4.67;4.27;;;20.30;28.40;;;;;;10322921;28;20403;-73
2022/04/28 11:09:14;;;;;;;4.70;4.30;;;20.40;27.80;;;;;;10320970;28;20727;-73
2022/04/28 11:14:18;;;;;;;5.20;4.80;;;20.60;28.30;;;;;;10320727;28;20608;-73
2022/04/28 11:19:22;;;;;;;4.67;4.20;;;20.70;27.60;;;;;;10321521;28;20235;-73
2022/04/28 11:24:28;;;;;;;4.40;4.00;;;20.80;26.70;;;;;;10322941;28;20258;-73
2022/04/28 11:29:32;;;;;;;5.63;3.87;;;20.80;26.80;;;;;;10289581;28;20242;-74
2022/04/28 11:34:37;;;;;;;4.53;4.13;;;20.80;27.30;;;;;;10321985;28;20297;-75
2022/04/28 11:39:41;;;;;;;3.97;3.67;;;20.80;26.40;;;;;;10304208;28;20242;-73
2022/04/28 11:44:48;;;;;;;4.07;3.67;;;20.90;26.70;;;;;;10317920;28;20241;-72
2022/04/28 11:50:02;;;;;;;4.63;3.80;;;21.10;25.30;;;;;;10311500;28;20629;-72
2022/04/28 11:55:08;;;;;;;4.37;4.07;;;21.10;23.40;;;;;;10298429;28;20315;-72
2022/04/28 12:00:12;;;;;;;4.53;4.13;;;21.10;25.10;;;;;;10295394;28;20632;-72
2022/04/28 12:05:19;;;;;;;4.83;4.43;;;21.00;24.80;;;;;;10303037;28;20227;-73
2022/04/28 12:15:48;;;;;;;4.80;4.40;;;20.70;23.80;;;;;;10291441;28;20234;-72
2022/04/28 12:20:55;;;;;;;4.30;4.00;;;20.60;24.90;;;;;;10289803;28;20232;-72
2022/04/28 12:26:00;;;;;;;4.20;3.90;;;20.50;24.10;;;;;;10294457;28;20234;-72
2022/04/28 12:31:07;;;;;;;4.00;3.70;;;20.40;24.60;;;;;;10294425;28;20235;-72
2022/04/28 12:36:28;;;;;;;4.23;3.83;;;20.40;25.60;;;;;;10293969;28;20330;-72
2022/04/28 12:41:33;;;;;;;4.30;3.90;;;20.50;24.90;;;;;;10296787;28;20231;-72
2022/04/28 12:46:37;;;;;;;4.30;4.00;;;20.60;25.70;;;;;;10306713;28;20259;-71
2022/04/28 12:51:44;;;;;;;4.40;4.10;;;20.60;25.30;;;;;;10306475;28;20979;-72
2022/04/28 12:56:53;;;;;;;4.20;3.90;;;20.60;23.70;;;;;;10307512;28;20238;-71
2022/04/28 13:01:56;;;;;;;4.03;3.63;;;20.60;24.50;;;;;;10296426;28;20230;-73
2022/04/28 13:07:04;;;;;;;3.60;3.30;;;20.50;24.90;;;;;;10295270;28;20927;-74
2022/04/28 13:12:08;;;;;;;4.47;3.80;;;20.60;24.60;;;;;;10299966;28;20242;-74
2022/04/28 13:17:13;;;;;;;4.00;3.70;;;20.60;24.00;;;;;;10302836;28;20246;-74
2022/04/28 13:22:17;;;;;;;4.00;3.60;;;20.60;23.20;;;;;;10306688;28;20223;-74
2022/04/28 13:27:22;;;;;;;3.47;3.17;;;20.50;23.10;;;;;;10308191;28;20342;-74
2022/04/28 13:32:25;;;;;;;3.43;3.00;;;20.50;24.20;;;;;;10309515;28;20237;-74
2022/04/28 13:37:30;;;;;;;3.70;3.40;;;20.60;24.30;;;;;;10303055;28;20235;-73
2022/04/28 13:42:33;;;;;;;3.47;3.20;;;20.70;24.00;;;;;;10304885;28;20231;-74
2022/04/28 13:47:36;;;;;;;4.20;3.33;;;20.90;24.10;;;;;;10308279;28;20650;-74
2022/04/28 13:52:41;;;;;;;3.60;3.13;;;21.00;23.70;;;;;;10309989;28;20244;-74
2022/04/28 13:57:44;;;;;;;2.90;2.70;;;21.10;22.80;;;;;;10307677;28;20249;-73
2022/04/28 14:02:47;;;;;;;3.23;2.97;;;21.20;23.50;;;;;;10305453;28;20231;-73
2022/04/28 14:07:52;;;;;;;3.10;2.90;;;21.20;23.40;;;;;;10294278;28;20240;-73
2022/04/28 14:12:55;;;;;;;3.80;3.60;;;21.20;22.90;;;;;;10299878;28;20776;-73
2022/04/28 14:17:58;;;;;;;3.57;3.27;;;21.30;22.90;;;;;;10302640;28;20240;-73
2022/04/28 14:23:03;;;;;;;3.60;3.30;;;21.40;22.80;;;;;;10309584;28;20230;-74
2022/04/28 14:28:08;;;;;;;3.73;3.47;;;21.40;21.90;;;;;;10302035;28;20231;-73
2022/04/28 14:33:11;;;;;;;3.70;3.40;;;21.40;22.30;;;;;;10300692;28;20903;-73
2022/04/28 14:38:18;;;;;;;3.70;3.40;;;21.40;22.50;;;;;;10299588;28;20245;-74
2022/04/28 14:43:21;;;;;;;3.20;2.90;;;21.50;22.10;;;;;;10298772;28;20241;-73
2022/04/28 14:48:25;;;;;;;3.67;3.37;;;21.50;22.60;;;;;;10297936;28;20240;-73
2022/04/28 14:53:35;;;;;;;3.70;3.50;;;21.50;22.70;;;;;;10302002;28;20227;-73
2022/04/28 14:58:38;;;;;;;3.67;3.37;;;21.50;22.00;;;;;;10302421;28;20240;-73
2022/04/28 15:03:43;;;;;;;3.70;3.40;;;21.60;22.50;;;;;;10303651;28;20231;-73
2022/04/28 15:08:48;;;;;;;3.33;3.13;;;21.70;22.30;;;;;;10303795;28;20235;-73
2022/04/28 15:13:51;;;;;;;3.33;3.13;;;21.70;21.80;;;;;;10301575;28;20235;-73
2022/04/28 15:18:54;;;;;;;4.10;3.80;;;21.80;21.90;;;;;;10294608;28;20734;-73
2022/04/28 15:23:59;;;;;;;3.37;3.10;;;21.80;21.40;;;;;;10300744;28;20223;-73
2022/04/28 15:29:03;;;;;;;3.67;3.37;;;21.80;21.20;;;;;;10296277;28;20219;-73
2022/04/28 15:34:07;;;;;;;3.37;3.07;;;21.80;21.30;;;;;;10305066;28;20227;-73
2022/04/28 15:39:15;;;;;;;3.20;3.00;;;21.80;21.40;;;;;;10297440;28;20231;-73
2022/04/28 15:44:19;;;;;;;3.50;3.20;;;21.80;20.80;;;;;;10298533;28;20231;-73
2022/04/28 15:49:23;;;;;;;3.53;3.30;;;21.80;21.20;;;;;;10303255;28;20246;-73
2022/04/28 15:54:27;;;;;;;3.60;3.30;;;21.90;21.20;;;;;;10303235;28;20257;-74
2022/04/28 15:59:30;;;;;;;3.73;3.43;;;21.90;21.00;;;;;;10298902;28;20724;-74
2022/04/28 16:04:34;;;;;;;3.97;3.57;;;21.90;21.10;;;;;;10300611;28;20246;-73
2022/04/28 16:09:39;;;;;;;3.27;3.07;;;22.00;21.00;;;;;;10303634;28;20288;-75
2022/04/28 16:14:42;;;;;;;3.40;3.20;;;22.00;20.90;;;;;;10303047;28;20255;-74
2022/04/28 16:19:46;;;;;;;3.87;3.57;;;22.00;20.90;;;;;;10304810;28;20651;-74
2022/04/28 16:24:53;;;;;;;3.20;3.00;;;21.90;20.70;;;;;;10308128;28;20230;-73
2022/04/28 16:29:57;;;;;;;4.13;3.73;;;21.90;20.60;;;;;;10302907;28;20250;-74
2022/04/28 16:35:00;;;;;;;4.00;3.70;;;21.90;21.00;;;;;;10302196;28;20251;-73
2022/04/28 16:40:06;;;;;;;4.07;3.77;;;21.90;21.40;;;;;;10309792;28;20239;-73
2022/04/28 16:45:10;;;;;;;3.80;3.50;;;21.90;20.00;;;;;;10305700;28;20239;-74
2022/04/28 16:50:14;;;;;;;3.57;3.23;;;21.90;20.60;;;;;;10300326;28;20245;-73
2022/04/28 16:55:19;;;;;;;3.20;3.00;;;22.00;20.80;;;;;;10305284;28;20690;-73
2022/04/28 17:00:22;;;;;;;3.10;2.90;;;22.10;20.30;;;;;;10299642;28;20242;-73
2022/04/28 17:05:26;;;;;;;3.07;2.87;;;22.10;20.80;;;;;;10310570;28;20234;-74
2022/04/28 17:10:31;;;;;;;2.70;2.50;;;22.20;20.90;;;;;;10317998;28;20231;-72
2022/04/28 17:15:34;;;;;;;2.93;2.73;;;22.20;20.40;;;;;;10303406;28;20884;-73
2022/04/28 17:20:37;;;;;;;3.30;3.07;;;22.30;20.90;;;;;;10288430;28;20223;-73
2022/04/28 17:25:43;;;;;;;3.27;2.97;;;22.40;20.90;;;;;;10290364;28;20256;-71
2022/04/28 17:30:46;;;;;;;4.63;3.10;;;22.40;20.30;;;;;;10313836;28;20852;-70
2022/04/28 17:35:49;;;;;;;3.40;3.10;;;22.50;20.60;;;;;;10309787;28;20729;-73
2022/04/28 17:40:54;;;;;;;2.80;2.60;;;22.50;20.00;;;;;;10306583;28;20314;-72
2022/04/28 17:45:57;;;;;;;3.40;3.10;;;22.40;19.60;;;;;;10305926;28;20330;-72
2022/04/28 17:51:00;;;;;;;3.07;2.87;;;22.20;20.30;;;;;;10310842;28;20853;-72
2022/04/28 18:01:26;;;;;;;2.70;2.50;;;21.90;20.20;;;;;;10313507;28;20227;-72
2022/04/28 18:06:31;;;;;;;3.17;2.87;;;21.80;20.70;;;;;;10312885;28;20746;-72
2022/04/28 18:11:35;;;;;;;2.67;2.47;;;21.60;20.60;;;;;;10317263;28;20731;-73
2022/04/28 18:16:39;;;;;;;2.67;2.47;;;21.50;20.70;;;;;;10318927;28;20235;-73
2022/04/28 18:21:43;;;;;;;3.63;3.10;;;21.40;21.00;;;;;;10314916;28;20335;-73
2022/04/28 18:26:48;;;;;;;3.00;2.70;;;21.20;21.10;;;;;;10318651;28;20236;-73
2022/04/28 18:31:57;;;;;;;3.07;2.87;;;21.10;21.10;;;;;;10306153;28;20236;-73
2022/04/28 18:47:45;;;;;;;3.03;2.83;;;20.60;21.30;;;;;;10306141;28;20251;-73
2022/04/28 18:52:49;;;;;;;2.77;2.57;;;20.30;21.30;;;;;;10318959;28;20235;-74
2022/04/28 18:57:54;;;;;;;3.70;2.70;;;20.10;21.30;;;;;;10309077;28;20231;-72
2022/04/28 19:02:58;;;;;;;3.23;3.00;;;19.90;21.40;;;;;;10305951;28;20310;-72
2022/04/28 19:08:05;;;;;;;3.17;2.90;;;19.70;21.60;;;;;;10300648;28;20232;-73
2022/04/28 19:13:10;;;;;;;3.53;2.83;;;19.60;21.90;;;;;;10307740;28;20243;-73
2022/04/28 19:18:13;;;;;;;2.90;2.70;;;19.40;21.80;;;;;;10299588;28;20231;-73
2022/04/28 19:23:16;;;;;;;3.13;2.83;;;19.30;22.00;;;;;;10304182;28;20255;-73
2022/04/28 19:28:21;;;;;;;3.20;2.93;;;19.10;22.00;;;;;;10300490;28;20230;-72
2022/04/28 19:33:24;;;;;;;3.40;3.20;;;19.00;22.00;;;;;;10301777;28;20266;-74
2022/04/28 19:38:27;;;;;;;3.30;3.00;;;18.90;21.90;;;;;;10297789;28;20273;-74
2022/04/28 19:43:34;;;;;;;3.47;3.20;;;18.60;22.00;;;;;;10296509;28;20242;-74
2022/04/28 19:48:37;;;;;;;3.80;3.50;;;18.40;22.30;;;;;;10296974;28;20235;-74
2022/04/28 19:53:41;;;;;;;4.17;3.70;;;18.20;22.30;;;;;;10301943;28;20653;-75
2022/04/28 19:58:45;;;;;;;4.17;3.23;;;18.10;22.40;;;;;;10301961;28;20223;-75
2022/04/28 20:03:54;;;;;;;4.60;4.20;;;17.80;22.50;;;;;;10296744;28;20229;-75
2022/04/28 20:08:59;;;;;;;5.47;4.80;;;17.60;22.50;;;;;;10300827;28;20238;-75
2022/04/28 20:14:04;;;;;;;7.10;6.17;;;17.40;22.70;;;;;;10302849;28;20791;-75
2022/04/28 20:19:07;;;;;;;10.90;9.67;;;17.10;23.40;;;;;;10305863;28;20235;-74
2022/04/28 20:24:11;;;;;;;9.83;8.73;;;17.00;23.30;;;;;;10309311;28;20611;-74
2022/04/28 20:29:16;;;;;;;6.77;6.20;;;16.90;23.20;;;;;;10303194;28;20235;-74
2022/04/28 20:34:25;;;;;;;6.83;5.70;;;16.70;23.10;;;;;;10307989;28;20235;-75
2022/04/28 20:39:29;;;;;;;6.57;5.97;;;16.60;23.00;;;;;;10304738;28;20226;-75
2022/04/28 20:44:33;;;;;;;6.97;6.27;;;16.50;22.90;;;;;;10306528;28;20708;-74
2022/04/28 20:49:37;;;;;;;7.13;6.43;;;16.30;23.20;;;;;;10303501;28;20226;-75
2022/04/28 20:54:41;;;;;;;6.10;5.50;;;16.10;23.20;;;;;;10306547;28;20234;-75
2022/04/28 20:59:46;;;;;;;7.67;7.00;;;15.80;23.50;;;;;;10302949;28;20579;-74
2022/04/28 21:04:50;;;;;;;6.70;6.20;;;15.70;23.80;;;;;;10307200;28;20317;-74
2022/04/28 21:09:54;;;;;;;6.37;5.77;;;15.50;23.80;;;;;;10300391;28;20656;-74
2022/04/28 21:14:59;;;;;;;5.37;4.87;;;15.30;23.80;;;;;;10295155;28;20234;-75
2022/04/28 21:20:02;;;;;;;5.40;4.90;;;15.10;24.10;;;;;;10298149;28;20229;-74
2022/04/28 21:25:07;;;;;;;5.83;5.33;;;14.90;24.10;;;;;;10293201;28;20263;-76
2022/04/28 21:30:14;;;;;;;6.03;5.43;;;14.70;24.50;;;;;;10305011;28;20242;-75
2022/04/28 21:35:17;;;;;;;5.27;4.87;;;14.60;24.90;;;;;;10306531;28;20235;-75
2022/04/28 21:40:21;;;;;;;5.43;5.00;;;14.60;24.90;;;;;;10307791;28;20226;-75
2022/04/28 21:45:26;;;;;;;5.77;5.27;;;14.60;24.80;;;;;;10304110;28;20234;-74
2022/04/28 21:50:32;;;;;;;6.60;5.50;;;14.50;24.80;;;;;;10305343;28;20226;-75
2022/04/28 21:55:35;;;;;;;5.93;5.43;;;14.20;24.60;;;;;;10311849;28;20242;-74
2022/04/28 22:00:47;;;;;;;5.83;5.30;;;14.00;24.90;;;;;;10304863;28;20243;-74
2022/04/28 22:11:14;;;;;;;4.80;4.40;;;13.90;25.30;;;;;;10303216;28;20237;-75
2022/04/28 22:16:19;;;;;;;5.00;4.50;;;13.80;25.00;;;;;;10302848;28;20853;-74
2022/04/28 22:21:22;;;;;;;6.00;5.40;;;13.70;25.60;;;;;;10309132;28;20231;-75
2022/04/28 22:26:26;;;;;;;5.17;4.67;;;13.60;25.50;;;;;;10304039;28;20243;-74
2022/04/28 22:31:31;;;;;;;5.27;4.83;;;13.60;25.40;;;;;;10296107;28;20583;-75
2022/04/28 22:36:34;;;;;;;5.23;4.73;;;13.50;25.80;;;;;;10298257;28;20246;-74
2022/04/28 22:41:38;;;;;;;5.60;5.20;;;13.50;25.70;;;;;;10310692;28;20317;-74
2022/04/28 22:46:42;;;;;;;5.63;5.13;;;13.40;25.60;;;;;;10303778;28;20233;-75
2022/04/28 22:51:46;;;;;;;8.93;5.63;;;13.30;25.70;;;;;;10306456;28;20235;-75
2022/04/28 22:56:49;;;;;;;6.33;5.10;;;13.10;25.50;;;;;;10308271;28;20236;-75
2022/04/28 23:01:54;;;;;;;5.57;5.07;;;12.90;25.70;;;;;;10302124;28;20299;-75
2022/04/28 23:06:58;;;;;;;6.00;5.43;;;12.80;26.30;;;;;;10295643;28;20262;-74
2022/04/28 23:12:02;;;;;;;6.27;5.70;;;12.70;26.10;;;;;;10303640;28;20607;-75
2022/04/28 23:17:07;;;;;;;5.70;5.20;;;12.60;26.00;;;;;;10301922;28;20227;-74
2022/04/28 23:22:10;;;;;;;6.10;5.60;;;12.40;26.40;;;;;;10308307;28;20235;-75
2022/04/28 23:27:13;;;;;;;6.00;5.50;;;12.30;26.10;;;;;;10292898;28;20242;-75
2022/04/28 23:32:18;;;;;;;6.23;5.33;;;12.10;26.20;;;;;;10309562;28;20270;-75
2022/04/28 23:42:43;;;;;;;5.57;5.07;;;11.70;26.40;;;;;;10306746;28;20706;-74
2022/04/28 23:47:47;;;;;;;5.13;4.73;;;11.50;26.70;;;;;;10301656;28;20238;-75
2022/04/28 23:58:12;;;;;;;6.03;5.53;;;11.40;26.70;;;;;;10305022;28;20235;-75
